createdAt,value
2022-08-26T00:01:59.716Z,101511.34
2022-08-26T00:04:28.753Z,101515.09
2022-08-26T00:06:56.334Z,101495.06
2022-08-26T00:09:23.578Z,101516.22
2022-08-26T00:11:51.624Z,101521.94
2022-08-26T00:14:18.388Z,101517.88
2022-08-26T00:16:48.226Z,101519.91
2022-08-26T00:19:19.217Z,101506.75
2022-08-26T00:21:48.693Z,101519.31
2022-08-26T00:24:21.724Z,101516.47
2022-08-26T00:26:49.073Z,101506.31
2022-08-26T00:29:15.999Z,101499.38
2022-08-26T00:31:42.544Z,101496.91
2022-08-26T00:34:12.071Z,101510.50
2022-08-26T00:36:39.701Z,101508.59
2022-08-26T00:39:07.591Z,101470.38
2022-08-26T00:41:35.349Z,101510.41
2022-08-26T00:44:01.974Z,101500.97
2022-08-26T00:46:31.390Z,101485.84
2022-08-26T00:49:29.970Z,101508.06
2022-08-26T00:52:01.084Z,101485.75
2022-08-26T00:54:31.705Z,101524.75
2022-08-26T00:57:04.859Z,101508.66
2022-08-26T00:59:35.938Z,101503.47
2022-08-26T01:02:05.943Z,101508.47
2022-08-26T01:04:36.050Z,101517.66
2022-08-26T01:07:03.876Z,101518.13
2022-08-26T01:09:32.304Z,101515.16
2022-08-26T01:12:02.068Z,101524.19
2022-08-26T01:14:36.696Z,101526.69
2022-08-26T01:17:05.503Z,101532.16
2022-08-26T01:19:47.408Z,101535.25
2022-08-26T01:22:23.131Z,101532.41
2022-08-26T01:24:55.003Z,101521.94
2022-08-26T01:27:23.391Z,101524.84
2022-08-26T01:29:50.690Z,101536.22
2022-08-26T01:32:22.229Z,101535.78
2022-08-26T01:34:50.111Z,101536.72
2022-08-26T01:37:20.627Z,101552.41
2022-08-26T01:39:51.308Z,101535.91
2022-08-26T01:42:20.773Z,101561.25
2022-08-26T01:44:59.851Z,101562.31
2022-08-26T01:47:29.933Z,101574.28
2022-08-26T01:49:59.785Z,101572.38
2022-08-26T01:52:28.610Z,101569.25
2022-08-26T01:54:57.090Z,101581.59
2022-08-26T01:57:25.895Z,101585.81
2022-08-26T01:59:55.640Z,101586.22
2022-08-26T02:02:23.255Z,101582.84
2022-08-26T02:04:57.228Z,101573.66
2022-08-26T02:07:26.707Z,101591.44
2022-08-26T02:09:53.869Z,101589.53
2022-08-26T02:12:21.027Z,101597.00
2022-08-26T02:14:53.581Z,101597.81
2022-08-26T02:17:25.768Z,101585.19
2022-08-26T02:19:52.711Z,101572.94
2022-08-26T02:22:22.023Z,101586.50
2022-08-26T02:24:52.682Z,101586.31
2022-08-26T02:27:26.343Z,101586.50
2022-08-26T02:30:03.265Z,101587.66
2022-08-26T02:32:29.735Z,101599.13
2022-08-26T02:34:56.367Z,101582.56
2022-08-26T02:37:23.128Z,101594.06
2022-08-26T02:39:49.627Z,101594.28
2022-08-26T02:42:16.232Z,101597.66
2022-08-26T02:44:42.673Z,101601.75
2022-08-26T02:47:13.652Z,101593.41
2022-08-26T02:49:47.473Z,101587.91
2022-08-26T02:52:14.167Z,101585.63
2022-08-26T02:54:40.567Z,101591.72
2022-08-26T02:57:07.052Z,101588.78
2022-08-26T02:59:35.871Z,101589.41
2022-08-26T03:02:03.056Z,101584.47
2022-08-26T03:04:31.063Z,101581.66
2022-08-26T03:06:59.963Z,101582.16
2022-08-26T03:09:27.004Z,101577.47
2022-08-26T03:11:55.271Z,101565.66
2022-08-26T03:14:23.899Z,101587.31
2022-08-26T03:16:53.862Z,101572.31
2022-08-26T03:19:22.834Z,101546.97
2022-08-26T03:21:49.658Z,101585.94
2022-08-26T03:24:17.459Z,101584.22
2022-08-26T03:26:52.017Z,101593.09
2022-08-26T03:29:38.641Z,101579.22
2022-08-26T03:32:06.136Z,101583.81
2022-08-26T03:34:32.991Z,101588.00
2022-08-26T03:36:59.646Z,101587.09
2022-08-26T03:39:26.314Z,101592.22
2022-08-26T03:41:53.587Z,101589.72
2022-08-26T03:44:20.880Z,101600.66
2022-08-26T03:46:47.341Z,101589.03
2022-08-26T03:49:15.171Z,101599.44
2022-08-26T03:51:42.091Z,101589.75
2022-08-26T03:54:09.159Z,101590.38
2022-08-26T03:56:36.612Z,101585.38
2022-08-26T03:59:04.600Z,101595.28
2022-08-26T04:01:31.953Z,101593.34
2022-08-26T04:04:00.325Z,101592.31
2022-08-26T04:06:30.227Z,101589.84
2022-08-26T04:08:58.820Z,101589.78
2022-08-26T04:11:34.118Z,101593.34
2022-08-26T04:14:04.923Z,101555.31
2022-08-26T04:16:31.573Z,101591.50
2022-08-26T04:18:58.841Z,101555.44
2022-08-26T04:21:26.689Z,101593.34
2022-08-26T04:23:54.316Z,101578.13
2022-08-26T04:26:22.206Z,101590.00
2022-08-26T04:28:50.256Z,101587.47
2022-08-26T04:31:18.558Z,101575.13
2022-08-26T04:33:47.644Z,101576.19
2022-08-26T04:36:16.732Z,101572.06
2022-08-26T04:38:43.199Z,101580.34
2022-08-26T04:41:15.292Z,101579.44
2022-08-26T04:43:44.396Z,101581.38
2022-08-26T04:46:13.090Z,101577.72
2022-08-26T04:48:41.144Z,101575.47
2022-08-26T04:51:09.384Z,101574.09
2022-08-26T04:53:36.796Z,101585.16
2022-08-26T04:56:03.352Z,101587.47
2022-08-26T04:58:31.022Z,101585.00
2022-08-26T05:00:58.350Z,101576.59
2022-08-26T05:03:27.181Z,101587.78
2022-08-26T05:05:57.371Z,101583.72
2022-08-26T05:08:24.203Z,101568.41
2022-08-26T05:10:56.260Z,101582.28
2022-08-26T05:13:25.426Z,101576.03
2022-08-26T05:15:52.502Z,101594.84
2022-08-26T05:18:22.784Z,101588.97
2022-08-26T05:20:53.953Z,101588.53
2022-08-26T05:23:22.805Z,101589.41
2022-08-26T05:25:53.645Z,101590.25
2022-08-26T05:28:22.606Z,101579.59
2022-08-26T05:30:49.958Z,101585.28
2022-08-26T05:33:17.272Z,101578.94
2022-08-26T05:35:45.240Z,101577.81
2022-08-26T05:38:15.539Z,101578.75
2022-08-26T05:40:45.682Z,101573.88
2022-08-26T05:43:13.446Z,101582.59
2022-08-26T05:45:46.118Z,101578.44
2022-08-26T05:48:13.782Z,101586.00
2022-08-26T05:50:46.537Z,101583.75
2022-08-26T05:53:15.313Z,101595.59
2022-08-26T05:55:48.053Z,101598.94
2022-08-26T05:58:15.064Z,101598.03
2022-08-26T06:00:45.118Z,101599.25
2022-08-26T06:03:11.725Z,101600.16
2022-08-26T06:05:41.823Z,101596.81
2022-08-26T06:08:11.608Z,101599.72
2022-08-26T06:10:49.227Z,101610.03
2022-08-26T06:13:19.469Z,101611.00
2022-08-26T06:15:48.339Z,101603.63
2022-08-26T06:18:17.179Z,101607.16
2022-08-26T06:20:57.070Z,101589.00
2022-08-26T06:23:45.002Z,101608.41
2022-08-26T06:26:12.771Z,101607.44
2022-08-26T06:28:39.234Z,101602.97
2022-08-26T06:31:06.057Z,101603.22
2022-08-26T06:33:33.259Z,101609.97
2022-08-26T06:36:01.030Z,101580.50
2022-08-26T06:38:28.673Z,101576.47
2022-08-26T06:40:55.343Z,101611.78
2022-08-26T06:43:24.135Z,101620.41
2022-08-26T06:45:51.122Z,101621.69
2022-08-26T06:48:20.416Z,101616.38
2022-08-26T06:50:47.897Z,101614.84
2022-08-26T06:53:16.966Z,101601.84
2022-08-26T06:55:46.850Z,101612.56
2022-08-26T06:58:18.259Z,101619.84
2022-08-26T07:00:47.515Z,101620.53
2022-08-26T07:03:14.231Z,101617.75
2022-08-26T07:05:40.720Z,101618.34
2022-08-26T07:08:07.235Z,101624.41
2022-08-26T07:10:35.681Z,101626.03
2022-08-26T07:13:02.586Z,101624.78
2022-08-26T07:15:31.418Z,101613.94
2022-08-26T07:17:58.114Z,101634.59
2022-08-26T07:20:24.561Z,101640.38
2022-08-26T07:22:51.422Z,101631.72
2022-08-26T07:25:19.261Z,101629.34
2022-08-26T07:27:46.511Z,101643.44
2022-08-26T07:30:20.792Z,101647.22
2022-08-26T07:32:47.436Z,101639.84
2022-08-26T07:35:14.605Z,101650.16
2022-08-26T07:37:41.051Z,101651.50
2022-08-26T07:40:09.373Z,101654.81
2022-08-26T07:42:35.979Z,101658.59
2022-08-26T07:45:02.435Z,101662.28
2022-08-26T07:47:29.007Z,101669.94
2022-08-26T07:49:57.445Z,101668.22
2022-08-26T07:52:27.193Z,101672.47
2022-08-26T07:54:55.207Z,101660.75
2022-08-26T07:57:21.768Z,101667.41
2022-08-26T07:59:51.289Z,101649.88
2022-08-26T08:02:17.802Z,101656.25
2022-08-26T08:04:45.020Z,101654.13
2022-08-26T08:07:12.555Z,101662.59
2022-08-26T08:09:40.733Z,101662.25
2022-08-26T08:12:07.563Z,101664.47
2022-08-26T08:14:36.443Z,101655.44
2022-08-26T08:17:04.463Z,101660.13
2022-08-26T08:19:36.672Z,101640.31
2022-08-26T08:22:17.385Z,101665.38
2022-08-26T08:24:46.773Z,101646.63
2022-08-26T08:27:18.126Z,101665.16
2022-08-26T08:29:47.927Z,101667.50
2022-08-26T08:32:15.467Z,101663.53
2022-08-26T08:37:13.578Z,101674.72
2022-08-26T08:39:40.891Z,101671.88
2022-08-26T08:42:19.939Z,101679.41
2022-08-26T08:44:52.874Z,101679.31
2022-08-26T08:47:42.061Z,101680.44
2022-08-26T08:50:25.546Z,101685.09
2022-08-26T08:52:59.379Z,101680.31
2022-08-26T08:55:36.168Z,101676.28
2022-08-26T08:58:06.651Z,101683.47
2022-08-26T09:01:00.209Z,101683.25
2022-08-26T09:03:55.410Z,101683.66
2022-08-26T09:06:21.914Z,101686.06
2022-08-26T09:08:51.092Z,101666.97
2022-08-26T09:11:19.819Z,101689.00
2022-08-26T09:13:53.702Z,101685.97
2022-08-26T09:16:40.941Z,101692.75
2022-08-26T09:19:33.132Z,101688.19
2022-08-26T09:22:04.614Z,101696.03
2022-08-26T09:24:39.632Z,101689.34
2022-08-26T09:27:08.950Z,101696.50
2022-08-26T09:29:43.763Z,101692.78
2022-08-26T09:32:24.050Z,101673.00
2022-08-26T09:35:27.768Z,101701.72
2022-08-26T09:37:55.141Z,101704.00
2022-08-26T09:40:27.467Z,101688.66
2022-08-26T09:43:08.514Z,101701.13
2022-08-26T09:45:37.191Z,101687.31
2022-08-26T09:48:03.725Z,101697.34
2022-08-26T09:50:36.395Z,101694.97
2022-08-26T09:53:14.454Z,101695.31
2022-08-26T09:55:47.558Z,101695.06
2022-08-26T09:58:33.744Z,101700.78
2022-08-26T10:01:04.237Z,101699.53
2022-08-26T10:03:34.547Z,101701.03
2022-08-26T10:06:21.155Z,101698.91
2022-08-26T10:08:54.241Z,101689.66
2022-08-26T10:11:31.173Z,101685.03
2022-08-26T10:14:13.402Z,101695.38
2022-08-26T10:16:50.697Z,101688.59
2022-08-26T10:19:25.235Z,101700.28
2022-08-26T10:22:06.050Z,101705.34
2022-08-26T10:24:43.011Z,101703.31
2022-08-26T10:27:51.003Z,101717.44
2022-08-26T10:30:22.058Z,101706.34
2022-08-26T10:32:52.077Z,101710.94
2022-08-26T10:35:19.307Z,101696.22
2022-08-26T10:37:49.892Z,101710.72
2022-08-26T10:40:23.515Z,101706.91
2022-08-26T10:42:55.263Z,101714.16
2022-08-26T10:45:26.277Z,101705.78
2022-08-26T10:48:16.452Z,101705.91
2022-08-26T10:50:47.629Z,101704.94
2022-08-26T10:53:19.742Z,101706.16
2022-08-26T10:56:05.372Z,101718.78
2022-08-26T10:58:50.352Z,101720.16
2022-08-26T11:01:44.186Z,101717.75
2022-08-26T11:04:38.531Z,101724.13
2022-08-26T11:07:32.751Z,101729.44
2022-08-26T11:10:20.662Z,101725.59
2022-08-26T11:12:49.603Z,101718.66
2022-08-26T11:15:24.731Z,101723.84
2022-08-26T11:17:51.343Z,101723.59
2022-08-26T11:20:29.932Z,101720.81
2022-08-26T11:23:28.166Z,101722.31
2022-08-26T11:26:10.076Z,101717.66
2022-08-26T11:28:44.265Z,101716.91
2022-08-26T11:31:32.590Z,101692.69
2022-08-26T11:34:01.887Z,101716.09
2022-08-26T11:36:47.637Z,101709.56
2022-08-26T11:39:36.699Z,101714.78
2022-08-26T11:42:20.328Z,101711.34
2022-08-26T11:44:49.628Z,101715.31
2022-08-26T11:47:25.266Z,101689.09
2022-08-26T11:50:06.773Z,101696.66
2022-08-26T11:52:33.232Z,101691.06
2022-08-26T11:55:08.026Z,101698.72
2022-08-26T11:57:41.839Z,101695.38
2022-08-26T12:00:14.189Z,101681.16
2022-08-26T12:02:43.556Z,101705.22
2022-08-26T12:05:14.763Z,101707.13
2022-08-26T12:07:42.645Z,101685.78
2022-08-26T12:10:10.790Z,101704.41
2022-08-26T12:12:38.713Z,101707.88
2022-08-26T12:15:12.472Z,101715.03
2022-08-26T12:17:39.939Z,101694.38
2022-08-26T12:20:46.197Z,101722.72
2022-08-26T12:23:41.360Z,101722.13
2022-08-26T12:26:27.622Z,101721.81
2022-08-26T12:29:02.316Z,101693.06
2022-08-26T12:31:44.252Z,101721.78
2022-08-26T12:34:17.972Z,101722.03
2022-08-26T12:36:47.311Z,101714.44
2022-08-26T12:39:24.096Z,101711.22
2022-08-26T12:41:56.313Z,101726.69
2022-08-26T12:44:41.768Z,101729.19
2022-08-26T12:47:43.157Z,101737.69
2022-08-26T12:50:18.673Z,101737.63
2022-08-26T12:53:09.741Z,101729.56
2022-08-26T12:55:44.708Z,101729.81
2022-08-26T12:58:29.886Z,101722.94
2022-08-26T13:01:22.452Z,101723.91
2022-08-26T13:03:49.486Z,101718.34
2022-08-26T13:06:22.191Z,101709.88
2022-08-26T13:08:57.927Z,101710.56
2022-08-26T13:11:35.269Z,101697.56
2022-08-26T13:14:07.766Z,101669.09
2022-08-26T13:16:36.005Z,101681.00
2022-08-26T13:19:10.557Z,101669.38
2022-08-26T13:21:43.703Z,101692.00
2022-08-26T13:24:33.493Z,101685.72
2022-08-26T13:27:01.026Z,101691.16
2022-08-26T13:29:27.605Z,101678.47
2022-08-26T13:31:55.379Z,101700.00
2022-08-26T13:34:23.341Z,101697.09
2022-08-26T13:36:51.713Z,101683.00
2022-08-26T13:39:18.743Z,101703.63
2022-08-26T13:41:46.140Z,101703.31
2022-08-26T13:44:12.713Z,101686.13
2022-08-26T13:46:39.343Z,101703.19
2022-08-26T13:49:06.320Z,101703.66
2022-08-26T13:51:33.247Z,101698.53
2022-08-26T13:54:00.283Z,101702.13
2022-08-26T13:56:29.555Z,101697.09
2022-08-26T13:58:57.044Z,101686.63
2022-08-26T14:01:24.236Z,101698.81
2022-08-26T14:03:50.727Z,101700.09
2022-08-26T14:06:17.244Z,101710.41
2022-08-26T14:08:44.554Z,101699.75
2022-08-26T14:11:11.310Z,101705.91
2022-08-26T14:13:39.116Z,101713.94
2022-08-26T14:16:10.416Z,101717.31
2022-08-26T14:18:42.539Z,101703.31
2022-08-26T14:21:13.031Z,101708.78
2022-08-26T14:23:40.126Z,101714.72
2022-08-26T14:26:08.314Z,101714.09
2022-08-26T14:28:36.179Z,101713.31
2022-08-26T14:31:04.009Z,101716.66
2022-08-26T14:33:33.882Z,101720.16
2022-08-26T14:36:20.100Z,101720.38
2022-08-26T14:38:46.907Z,101720.25
2022-08-26T14:41:17.137Z,101702.19
2022-08-26T14:43:49.848Z,101714.06
2022-08-26T14:46:17.767Z,101676.31
2022-08-26T14:48:44.714Z,101703.91
2022-08-26T14:51:11.653Z,101672.56
2022-08-26T14:53:56.598Z,101705.25
2022-08-26T14:56:23.124Z,101702.50
2022-08-26T14:58:49.558Z,101702.91
2022-08-26T15:01:15.989Z,101703.50
2022-08-26T15:03:42.657Z,101708.06
2022-08-26T15:06:10.340Z,101701.19
2022-08-26T15:08:37.275Z,101715.22
2022-08-26T15:11:04.172Z,101715.97
2022-08-26T15:13:30.798Z,101722.16
2022-08-26T15:15:57.402Z,101704.28
2022-08-26T15:18:23.953Z,101726.63
2022-08-26T15:20:50.398Z,101695.34
2022-08-26T15:23:16.800Z,101727.91
2022-08-26T15:25:45.664Z,101717.31
2022-08-26T15:28:12.074Z,101710.16
2022-08-26T15:30:39.143Z,101712.19
2022-08-26T15:33:05.576Z,101696.97
2022-08-26T15:35:41.514Z,101711.47
2022-08-26T15:38:10.513Z,101719.09
2022-08-26T15:40:37.359Z,101729.06
2022-08-26T15:43:18.470Z,101723.78
2022-08-26T15:45:50.530Z,101723.81
2022-08-26T15:48:16.912Z,101727.78
2022-08-26T15:50:50.965Z,101716.75
2022-08-26T15:53:17.430Z,101719.88
2022-08-26T15:55:43.859Z,101714.19
2022-08-26T15:58:10.419Z,101722.53
2022-08-26T16:00:37.642Z,101719.50
2022-08-26T16:03:04.185Z,101723.13
2022-08-26T16:05:30.670Z,101724.38
2022-08-26T16:07:57.687Z,101722.94
2022-08-26T16:10:24.346Z,101731.72
2022-08-26T16:12:50.785Z,101731.13
2022-08-26T16:15:17.236Z,101729.06
2022-08-26T16:17:43.621Z,101738.53
2022-08-26T16:20:10.112Z,101743.13
2022-08-26T16:22:36.508Z,101742.53
2022-08-26T16:25:02.972Z,101735.53
2022-08-26T16:27:29.391Z,101746.13
2022-08-26T16:29:55.935Z,101743.81
2022-08-26T16:32:22.375Z,101739.19
2022-08-26T16:34:56.651Z,101746.59
2022-08-26T16:37:23.567Z,101739.84
2022-08-26T16:39:50.015Z,101749.75
2022-08-26T16:42:16.458Z,101753.13
2022-08-26T16:44:45.522Z,101743.47
2022-08-26T16:47:14.036Z,101744.13
2022-08-26T16:49:41.090Z,101754.81
2022-08-26T16:52:09.092Z,101747.72
2022-08-26T16:54:36.469Z,101718.59
2022-08-26T16:57:02.936Z,101740.41
2022-08-26T16:59:32.644Z,101739.38
2022-08-26T17:01:59.351Z,101733.72
2022-08-26T17:04:26.690Z,101729.97
2022-08-26T17:06:53.418Z,101741.25
2022-08-26T17:09:20.068Z,101722.44
2022-08-26T17:11:46.494Z,101711.50
2022-08-26T17:14:13.264Z,101744.41
2022-08-26T17:16:39.771Z,101739.38
2022-08-26T17:19:06.453Z,101737.94
2022-08-26T17:21:35.224Z,101751.59
2022-08-26T17:24:02.787Z,101749.06
2022-08-26T17:26:29.616Z,101769.41
2022-08-26T17:28:56.027Z,101769.63
2022-08-26T17:31:23.549Z,101776.13
2022-08-26T17:33:50.920Z,101779.47
2022-08-26T17:36:20.538Z,101779.91
2022-08-26T17:38:46.931Z,101769.19
2022-08-26T17:41:16.412Z,101786.59
2022-08-26T17:43:42.871Z,101787.69
2022-08-26T17:46:10.879Z,101792.91
2022-08-26T17:48:39.453Z,101797.09
2022-08-26T17:51:12.081Z,101791.66
2022-08-26T17:53:39.200Z,101795.41
2022-08-26T17:56:07.828Z,101800.03
2022-08-26T17:58:35.523Z,101805.06
2022-08-26T18:03:29.146Z,101797.09
2022-08-26T18:05:55.618Z,101795.22
2022-08-26T18:08:22.760Z,101788.06
2022-08-26T18:10:49.471Z,101789.97
2022-08-26T18:13:16.934Z,101794.38
2022-08-26T18:15:45.417Z,101794.78
2022-08-26T18:18:13.460Z,101790.16
2022-08-26T18:20:41.591Z,101798.97
2022-08-26T18:23:08.229Z,101801.91
2022-08-26T18:25:35.124Z,101807.16
2022-08-26T18:28:01.549Z,101810.47
2022-08-26T18:30:27.936Z,101807.56
2022-08-26T18:32:54.348Z,101797.69
2022-08-26T18:35:21.471Z,101819.47
2022-08-26T18:37:48.419Z,101813.59
2022-08-26T18:40:16.062Z,101815.91
2022-08-26T18:42:42.732Z,101821.78
2022-08-26T18:45:09.841Z,101814.44
2022-08-26T18:47:42.555Z,101811.94
2022-08-26T18:50:10.788Z,101810.25
2022-08-26T18:52:37.372Z,101816.31
2022-08-26T18:55:04.233Z,101812.97
2022-08-26T18:57:30.634Z,101822.41
2022-08-26T18:59:57.091Z,101830.38
2022-08-26T19:02:24.423Z,101821.97
2022-08-26T19:04:51.799Z,101826.16
2022-08-26T19:07:20.189Z,101821.97
2022-08-26T19:09:46.609Z,101830.34
2022-08-26T19:12:13.167Z,101825.09
2022-08-26T19:14:39.937Z,101815.03
2022-08-26T19:17:06.437Z,101819.06
2022-08-26T19:19:33.161Z,101820.09
2022-08-26T19:22:00.039Z,101823.66
2022-08-26T19:24:28.430Z,101820.91
2022-08-26T19:26:58.275Z,101814.59
2022-08-26T19:29:27.148Z,101822.13
2022-08-26T19:31:53.772Z,101820.69
2022-08-26T19:34:20.893Z,101820.88
2022-08-26T19:36:47.663Z,101826.09
2022-08-26T19:39:14.226Z,101825.47
2022-08-26T19:41:40.939Z,101824.03
2022-08-26T19:44:12.893Z,101834.09
2022-08-26T19:49:10.825Z,101819.63
2022-08-26T19:51:37.596Z,101816.06
2022-08-26T19:54:04.485Z,101823.19
2022-08-26T19:56:31.660Z,101821.06
2022-08-26T19:58:58.257Z,101824.22
2022-08-26T20:01:25.424Z,101814.75
2022-08-26T20:03:52.044Z,101813.53
2022-08-26T20:06:19.958Z,101802.38
2022-08-26T20:08:46.487Z,101822.91
2022-08-26T20:11:17.250Z,101813.97
2022-08-26T20:13:45.294Z,101813.50
2022-08-26T20:16:12.068Z,101817.66
2022-08-26T20:19:02.526Z,101819.34
2022-08-26T20:21:34.029Z,101815.16
2022-08-26T20:24:07.141Z,101804.25
2022-08-26T20:26:35.337Z,101822.09
2022-08-26T20:29:02.543Z,101827.31
2022-08-26T20:31:29.588Z,101821.84
2022-08-26T20:33:56.153Z,101815.34
2022-08-26T20:36:24.362Z,101818.47
2022-08-26T20:38:50.859Z,101815.72
2022-08-26T20:41:17.495Z,101821.38
2022-08-26T20:43:44.992Z,101818.03
2022-08-26T20:46:18.183Z,101816.78
2022-08-26T20:48:46.468Z,101825.13
2022-08-26T20:51:12.927Z,101815.53
2022-08-26T20:53:39.668Z,101807.88
2022-08-26T20:56:08.660Z,101828.88
2022-08-26T20:58:35.466Z,101823.84
2022-08-26T21:01:07.346Z,101829.94
2022-08-26T21:03:35.334Z,101829.31
2022-08-26T21:06:03.052Z,101825.03
2022-08-26T21:08:29.452Z,101824.06
2022-08-26T21:10:55.842Z,101836.69
2022-08-26T21:13:22.703Z,101822.19
2022-08-26T21:15:49.141Z,101825.34
2022-08-26T21:18:15.599Z,101832.72
2022-08-26T21:20:41.999Z,101828.06
2022-08-26T21:23:08.416Z,101827.25
2022-08-26T21:25:34.807Z,101816.72
2022-08-26T21:28:01.234Z,101829.53
2022-08-26T21:30:27.824Z,101827.16
2022-08-26T21:32:54.221Z,101834.28
2022-08-26T21:35:20.724Z,101831.56
2022-08-26T21:37:47.467Z,101835.09
2022-08-26T21:40:14.093Z,101825.66
2022-08-26T21:42:40.592Z,101828.81
2022-08-26T21:45:07.379Z,101827.56
2022-08-26T21:47:33.857Z,101814.72
2022-08-26T21:50:00.343Z,101836.72
2022-08-26T21:52:26.926Z,101830.81
2022-08-26T21:55:01.231Z,101827.06
2022-08-26T21:57:28.514Z,101828.56
2022-08-26T21:59:55.661Z,101828.78
2022-08-26T22:02:22.748Z,101819.50
2022-08-26T22:04:49.455Z,101822.88
2022-08-26T22:07:18.483Z,101824.56
2022-08-26T22:09:46.917Z,101826.25
2022-08-26T22:12:13.412Z,101823.63
2022-08-26T22:14:39.902Z,101824.00
2022-08-26T22:17:06.446Z,101836.06
2022-08-26T22:19:34.020Z,101837.19
2022-08-26T22:22:05.503Z,101844.16
2022-08-26T22:24:32.263Z,101850.19
2022-08-26T22:26:58.681Z,101855.19
2022-08-26T22:29:25.594Z,101848.25
2022-08-26T22:31:52.572Z,101848.44
2022-08-26T22:34:20.628Z,101845.34
2022-08-26T22:36:48.898Z,101840.66
2022-08-26T22:39:21.927Z,101840.94
2022-08-26T22:41:49.376Z,101820.50
2022-08-26T22:44:17.515Z,101857.81
2022-08-26T22:46:45.086Z,101846.31
2022-08-26T22:49:17.672Z,101851.06
2022-08-26T22:51:45.466Z,101855.84
2022-08-26T22:54:12.562Z,101853.72
2022-08-26T22:56:39.701Z,101860.00
2022-08-26T22:59:10.031Z,101853.91
2022-08-26T23:01:39.671Z,101853.34
2022-08-26T23:04:07.803Z,101858.53
2022-08-26T23:06:36.948Z,101864.09
2022-08-26T23:09:05.034Z,101856.19
2022-08-26T23:11:31.839Z,101858.00
2022-08-26T23:13:58.261Z,101861.25
2022-08-26T23:16:28.179Z,101845.38
2022-08-26T23:19:02.342Z,101853.53
2022-08-26T23:21:29.862Z,101849.72
2022-08-26T23:23:56.332Z,101848.59
2022-08-26T23:26:23.817Z,101850.38
2022-08-26T23:28:50.288Z,101858.31
2022-08-26T23:31:16.740Z,101853.59
2022-08-26T23:34:01.779Z,101846.22
2022-08-26T23:36:30.966Z,101847.78
2022-08-26T23:39:00.819Z,101849.47
2022-08-26T23:41:30.250Z,101840.41
2022-08-26T23:43:59.528Z,101837.22
2022-08-26T23:46:28.080Z,101839.16
2022-08-26T23:48:54.500Z,101835.09
2022-08-26T23:51:39.308Z,101835.09
2022-08-26T23:54:06.527Z,101827.47
2022-08-26T23:56:34.716Z,101832.69
2022-08-26T23:59:01.132Z,101835.75
